Time;durP1;ratioP1;P1;durP2;ratioP2;P2;SDS_P1;SDS_P2;PMS_P1;PMS_P2;Temp;Humidity;BMP_temperature;BMP_pressure;BME280_temperature;BME280_humidity;BME280_pressure;Samples;Min_cycle;Max_cycle;Signal;HPM_P1;HPM_P2
2022/09/30 00:01:33;;;;;;;2.25;2.05;;;;;;;5.61;93.90;100878.00;5014607;28;20137;-80
2022/09/30 00:04:00;;;;;;;2.13;2.00;;;;;;;5.59;93.71;100872.38;5013700;28;20393;-81
2022/09/30 00:06:28;;;;;;;2.10;1.70;;;;;;;5.58;94.04;100873.53;5014710;28;20496;-80
2022/09/30 00:08:56;;;;;;;2.00;1.90;;;;;;;5.54;93.76;100876.22;5013857;28;20590;-81
2022/09/30 00:11:29;;;;;;;2.20;2.10;;;;;;;5.52;93.66;100873.25;5014469;28;20550;-81
2022/09/30 00:13:57;;;;;;;2.20;2.10;;;;;;;5.50;93.58;100875.53;5014337;28;20043;-81
2022/09/30 00:16:26;;;;;;;2.17;2.00;;;;;;;5.48;93.58;100882.38;5014136;28;20047;-80
2022/09/30 00:18:56;;;;;;;2.13;2.03;;;;;;;5.44;93.48;100879.78;5013273;28;20053;-81
2022/09/30 00:21:24;;;;;;;2.30;2.10;;;;;;;5.44;93.36;100873.75;5014424;28;20121;-81
2022/09/30 00:23:50;;;;;;;2.15;2.00;;;;;;;5.43;93.38;100874.88;4996639;28;20129;-81
2022/09/30 00:26:19;;;;;;;1.70;1.60;;;;;;;5.40;93.34;100873.06;5014449;28;20050;-81
2022/09/30 00:28:50;;;;;;;2.33;2.10;;;;;;;5.34;93.33;100876.13;5014186;28;20042;-81
2022/09/30 00:31:18;;;;;;;2.22;2.03;;;;;;;5.33;93.18;100872.00;5014096;28;20089;-81
2022/09/30 00:36:42;;;;;;;2.10;2.00;;;;;;;5.27;93.15;100878.13;5014257;28;20598;-81
2022/09/30 00:39:12;;;;;;;2.03;1.85;;;;;;;5.24;93.31;100882.31;5013964;28;20050;-81
2022/09/30 00:41:39;;;;;;;2.05;1.95;;;;;;;5.22;93.27;100876.69;5014191;28;20058;-81
2022/09/30 00:44:39;;;;;;;2.00;1.90;;;;;;;5.20;93.24;100875.63;5013782;28;20105;-81
2022/09/30 00:47:24;;;;;;;1.80;1.70;;;;;;;5.15;93.39;100882.09;5013648;28;20473;-81
2022/09/30 00:49:51;;;;;;;2.83;2.15;;;;;;;5.05;93.85;100879.59;5018116;28;20129;-81
2022/09/30 00:52:18;;;;;;;1.77;1.67;;;;;;;4.99;93.97;100879.28;5033642;28;20124;-81
2022/09/30 00:54:45;;;;;;;4.32;1.88;;;;;;;4.98;94.08;100885.69;5033730;28;20089;-81
2022/09/30 00:57:11;;;;;;;3.03;1.75;;;;;;;5.01;93.73;100887.53;5032688;28;20073;-80
2022/09/30 00:59:43;;;;;;;2.17;2.08;;;;;;;5.03;93.64;100885.25;5033599;28;20046;-81
2022/09/30 01:02:13;;;;;;;2.00;1.80;;;;;;;5.05;93.40;100879.59;5032518;28;20113;-80
2022/09/30 01:04:41;;;;;;;3.00;1.90;;;;;;;5.03;93.43;100882.63;5033486;28;20050;-80
2022/09/30 01:07:09;;;;;;;1.88;1.73;;;;;;;4.97;93.58;100887.59;5032599;28;20076;-80
2022/09/30 01:09:39;;;;;;;2.13;1.98;;;;;;;4.95;93.86;100892.50;5032407;28;20172;-80
2022/09/30 01:12:09;;;;;;;1.80;1.70;;;;;;;4.94;93.40;100883.09;5031729;28;20096;-80
2022/09/30 01:14:37;;;;;;;6.90;1.98;;;;;;;4.94;93.34;100875.19;5015262;28;20046;-80
2022/09/30 01:17:27;;;;;;;1.70;1.60;;;;;;;4.92;93.21;100874.84;5033079;28;20097;-80
2022/09/30 01:20:09;;;;;;;1.92;1.83;;;;;;;4.90;93.47;100876.38;5033352;28;20096;-80
2022/09/30 01:22:50;;;;;;;2.03;1.92;;;;;;;4.89;93.21;100878.25;5033385;28;20135;-81
2022/09/30 01:25:36;;;;;;;3.03;2.00;;;;;;;4.89;93.34;100877.50;5033516;28;20125;-81
2022/09/30 01:28:40;;;;;;;4.95;1.75;;;;;;;4.88;93.26;100874.13;5031475;28;20049;-81
2022/09/30 01:31:29;;;;;;;1.70;1.60;;;;;;;4.86;93.21;100881.69;5032197;28;20132;-82
2022/09/30 01:34:17;;;;;;;1.75;1.65;;;;;;;4.86;93.45;100878.31;5032849;28;20614;-82
2022/09/30 01:37:00;;;;;;;1.98;1.88;;;;;;;4.84;93.30;100881.34;5033310;28;20137;-82
2022/09/30 01:39:26;;;;;;;2.10;1.90;;;;;;;4.79;93.75;100886.34;5033001;28;20493;-82
2022/09/30 01:42:08;;;;;;;5.55;2.25;;;;;;;4.77;93.65;100888.63;5032775;28;20084;-82
2022/09/30 01:44:41;;;;;;;1.77;1.67;;;;;;;4.69;93.47;100893.97;5032459;28;20458;-81
2022/09/30 01:47:14;;;;;;;1.63;1.52;;;;;;;4.68;93.52;100889.84;5031254;28;20529;-82
2022/09/30 01:49:49;;;;;;;1.80;1.70;;;;;;;4.68;93.39;100887.19;5032968;28;20045;-81
2022/09/30 01:52:22;;;;;;;1.67;1.58;;;;;;;4.70;93.52;100892.09;5033372;28;20046;-81
2022/09/30 01:55:02;;;;;;;3.63;1.60;;;;;;;4.66;93.77;100894.75;5032972;28;20066;-81
2022/09/30 01:57:45;;;;;;;1.90;1.80;;;;;;;4.63;93.69;100887.63;5033040;28;20146;-81
2022/09/30 02:00:14;;;;;;;1.50;1.40;;;;;;;4.63;93.68;100897.44;5033078;28;20129;-81
2022/09/30 02:02:52;;;;;;;3.17;2.08;;;;;;;4.61;93.49;100895.19;5032659;28;20430;-81
2022/09/30 02:05:25;;;;;;;1.92;1.73;;;;;;;4.60;93.43;100903.50;5033036;28;20123;-81
2022/09/30 02:07:57;;;;;;;1.70;1.60;;;;;;;4.54;93.72;100905.81;5032541;28;20137;-81
2022/09/30 02:10:30;;;;;;;2.88;1.42;;;;;;;4.53;93.74;100893.75;5033286;28;20097;-81
2022/09/30 02:13:04;;;;;;;1.63;1.52;;;;;;;4.53;93.55;100898.28;5014586;28;20077;-81
2022/09/30 02:15:36;;;;;;;1.45;1.35;;;;;;;4.56;93.71;100894.88;5032725;28;20061;-81
2022/09/30 02:18:25;;;;;;;4.55;1.77;;;;;;;4.54;93.22;100895.25;5032583;28;20052;-81
2022/09/30 02:20:57;;;;;;;1.63;1.52;;;;;;;4.45;93.50;100896.88;5032478;28;20050;-81
2022/09/30 02:23:27;;;;;;;;;;;;;;;4.46;93.62;100893.84;5033060;28;20150;-80
2022/09/30 02:26:05;;;;;;;1.58;1.45;;;;;;;4.42;93.52;100893.13;5032353;28;19983;-81
2022/09/30 02:28:35;;;;;;;3.08;1.40;;;;;;;4.39;93.68;100896.56;5032298;28;20129;-80
2022/09/30 02:31:04;;;;;;;6.22;1.40;;;;;;;4.40;93.81;100899.97;5032217;28;20117;-81
2022/09/30 02:33:37;;;;;;;1.70;1.60;;;;;;;4.39;93.75;100893.19;5014356;28;20056;-81
2022/09/30 02:36:12;;;;;;;1.60;1.50;;;;;;;4.35;93.87;100899.25;5032135;28;20076;-81
2022/09/30 02:38:44;;;;;;;1.70;1.60;;;;;;;4.35;93.87;100896.59;5031357;28;20552;-81
2022/09/30 02:41:18;;;;;;;4.90;1.63;;;;;;;4.35;93.95;100891.34;5031046;28;20058;-81
2022/09/30 02:43:45;;;;;;;1.40;1.30;;;;;;;4.36;93.78;100884.19;5033324;28;20049;-81
2022/09/30 02:46:32;;;;;;;6.47;1.30;;;;;;;4.35;93.84;100877.41;5017711;28;20133;-81
2022/09/30 02:49:28;;;;;;;1.45;1.40;;;;;;;4.34;93.65;100886.47;5035544;28;20134;-81
2022/09/30 02:52:14;;;;;;;2.53;1.33;;;;;;;4.32;93.73;100889.47;5024614;28;20057;-81
2022/09/30 02:54:52;;;;;;;2.30;1.40;;;;;;;4.31;93.78;100884.59;5035667;28;20474;-81
2022/09/30 02:57:28;;;;;;;1.20;1.20;;;;;;;4.28;93.46;100890.66;5035136;28;20130;-81
2022/09/30 02:59:54;;;;;;;1.60;1.50;;;;;;;4.27;93.84;100889.91;5035288;28;20046;-81
2022/09/30 03:02:22;;;;;;;1.60;1.50;;;;;;;4.26;93.66;100895.56;5035134;28;20072;-81
2022/09/30 03:04:49;;;;;;;2.13;1.63;;;;;;;4.21;93.48;100894.09;5034918;28;20074;-81
2022/09/30 03:07:17;;;;;;;6.93;1.70;;;;;;;4.17;93.35;100890.75;5034946;28;20480;-80
2022/09/30 03:09:43;;;;;;;1.60;1.50;;;;;;;4.17;93.43;100896.03;5035588;28;20506;-81
2022/09/30 03:12:36;;;;;;;2.65;1.30;;;;;;;4.17;93.58;100903.19;5034667;28;20565;-81
2022/09/30 03:15:08;;;;;;;3.42;1.42;;;;;;;4.15;93.70;100903.56;4997162;28;20064;-81
2022/09/30 03:17:43;;;;;;;1.42;1.35;;;;;;;4.14;93.81;100903.97;5035087;28;20149;-81
2022/09/30 03:20:22;;;;;;;1.90;1.20;;;;;;;4.11;93.80;100904.75;5035087;28;20475;-81
2022/09/30 03:23:18;;;;;;;1.58;1.45;;;;;;;4.11;93.57;100918.66;5034945;28;20410;-81
2022/09/30 03:26:27;;;;;;;1.40;1.30;;;;;;;4.10;93.89;100911.16;5034464;28;20062;-81
2022/09/30 03:29:14;;;;;;;1.45;1.35;;;;;;;4.04;94.05;100913.44;5034849;28;20065;-81
2022/09/30 03:31:51;;;;;;;3.13;1.65;;;;;;;4.02;94.14;100924.38;5035074;28;20141;-81
2022/09/30 03:34:42;;;;;;;1.00;1.00;;;;;;;4.01;94.24;100922.88;5035049;28;20120;-81
2022/09/30 03:37:27;;;;;;;1.05;1.05;;;;;;;4.02;94.27;100931.53;5034768;28;20065;-81
2022/09/30 03:40:09;;;;;;;1.80;1.35;;;;;;;3.91;94.29;100931.63;5034432;28;20081;-81
2022/09/30 03:42:44;;;;;;;2.50;1.58;;;;;;;3.89;94.51;100926.00;5034582;28;20573;-81
2022/09/30 03:45:19;;;;;;;1.50;1.40;;;;;;;3.92;94.48;100932.38;5034528;28;20049;-81
2022/09/30 03:47:52;;;;;;;1.60;1.30;;;;;;;3.90;94.12;100935.41;5034713;28;20118;-81
2022/09/30 03:50:22;;;;;;;2.45;1.60;;;;;;;3.84;94.27;100944.13;5035045;28;20100;-81
2022/09/30 03:52:49;;;;;;;1.70;1.60;;;;;;;3.78;94.21;100946.41;5016914;28;20034;-81
2022/09/30 03:55:18;;;;;;;3.05;1.50;;;;;;;3.76;94.41;100940.03;5034379;28;20538;-81
2022/09/30 03:57:44;;;;;;;1.60;1.50;;;;;;;3.73;94.18;100954.72;5034581;28;20049;-81
2022/09/30 04:00:12;;;;;;;1.75;1.50;;;;;;;3.74;94.21;100955.47;5034397;28;20494;-81
2022/09/30 04:02:39;;;;;;;2.05;1.60;;;;;;;3.67;94.18;100962.28;5034528;28;20046;-80
2022/09/30 04:05:06;;;;;;;1.33;1.30;;;;;;;3.72;94.27;100960.38;5016295;28;20088;-80
2022/09/30 04:07:32;;;;;;;1.63;1.40;;;;;;;3.69;94.09;100952.09;5034075;28;20594;-81
2022/09/30 04:09:59;;;;;;;1.50;1.40;;;;;;;3.66;94.03;100955.50;5033826;28;20050;-81
2022/09/30 04:12:26;;;;;;;1.35;1.25;;;;;;;3.64;94.18;100960.41;5034321;28;20605;-81
2022/09/30 04:14:52;;;;;;;1.63;1.52;;;;;;;3.57;93.96;100962.34;5034307;28;20129;-81
2022/09/30 04:17:21;;;;;;;1.20;1.20;;;;;;;3.54;94.44;100963.88;5034304;28;20121;-80
2022/09/30 04:19:48;;;;;;;3.17;1.33;;;;;;;3.56;94.48;100960.84;5033709;28;20113;-80
2022/09/30 04:22:15;;;;;;;1.58;1.48;;;;;;;3.58;94.36;100955.97;5032712;28;20145;-80
2022/09/30 04:24:42;;;;;;;1.50;1.40;;;;;;;3.59;94.36;100955.56;5034017;28;20642;-80
2022/09/30 04:27:09;;;;;;;1.35;1.30;;;;;;;3.60;94.52;100966.81;5033970;28;20117;-81
2022/09/30 04:29:35;;;;;;;3.17;1.45;;;;;;;3.52;94.41;100966.13;5034124;28;20076;-81
2022/09/30 04:32:02;;;;;;;1.75;1.48;;;;;;;3.46;94.64;100974.81;5032690;28;20455;-81
2022/09/30 04:34:28;;;;;;;3.60;1.85;;;;;;;3.46;94.79;100972.94;5033845;28;20042;-81
2022/09/30 04:36:55;;;;;;;1.63;1.52;;;;;;;3.47;94.84;100971.81;5033835;28;20527;-81
2022/09/30 04:39:21;;;;;;;1.63;1.52;;;;;;;3.44;94.79;100980.47;5033401;28;20121;-81
2022/09/30 04:41:48;;;;;;;1.60;1.50;;;;;;;3.40;94.71;100979.72;5033426;28;20140;-80
2022/09/30 04:44:14;;;;;;;2.35;1.50;;;;;;;3.41;94.42;100975.97;5033616;28;20479;-80
2022/09/30 04:46:42;;;;;;;1.77;1.67;;;;;;;3.43;94.26;100984.22;5015881;28;20130;-81
2022/09/30 04:49:08;;;;;;;2.13;1.70;;;;;;;3.40;94.29;100984.25;5015252;28;20137;-80
2022/09/30 04:51:35;;;;;;;1.55;1.48;;;;;;;3.32;94.38;100986.16;5033833;28;20045;-80
2022/09/30 04:54:02;;;;;;;4.60;1.77;;;;;;;3.33;94.50;100982.41;5015188;28;20097;-80
2022/09/30 04:56:28;;;;;;;3.30;1.65;;;;;;;3.35;94.42;100974.88;5015791;28;20108;-80
2022/09/30 04:58:55;;;;;;;1.25;1.15;;;;;;;3.36;94.45;100976.38;5033245;28;20384;-80
2022/09/30 05:01:21;;;;;;;1.50;1.40;;;;;;;3.32;94.52;100981.66;5033490;28;20594;-80
2022/09/30 05:03:49;;;;;;;1.60;1.50;;;;;;;3.27;94.37;100986.56;5032898;28;20058;-80
2022/09/30 05:06:16;;;;;;;1.70;1.60;;;;;;;3.22;94.44;100985.06;5032326;28;20080;-81
2022/09/30 05:08:42;;;;;;;1.48;1.38;;;;;;;3.23;94.37;100991.09;5033138;28;20507;-80
2022/09/30 05:11:17;;;;;;;2.03;1.63;;;;;;;3.25;94.39;100980.94;5033007;28;20053;-80
2022/09/30 05:13:45;;;;;;;3.45;1.80;;;;;;;3.24;94.37;100995.22;5032802;28;20968;-80
2022/09/30 05:16:12;;;;;;;1.55;1.45;;;;;;;3.25;94.19;100988.81;5033067;28;20046;-80
2022/09/30 05:18:44;;;;;;;4.13;1.58;;;;;;;3.24;94.51;100997.84;5033299;28;20046;-80
2022/09/30 05:21:13;;;;;;;1.60;1.50;;;;;;;3.21;94.47;100995.97;5013676;28;20545;-81
2022/09/30 05:23:39;;;;;;;1.70;1.60;;;;;;;3.21;94.54;100998.59;5032914;28;20054;-80
2022/09/30 05:26:06;;;;;;;1.67;1.55;;;;;;;3.20;94.61;101005.03;5032308;28;20481;-80
2022/09/30 05:28:37;;;;;;;3.28;2.10;;;;;;;3.17;94.63;101005.78;5033021;28;20038;-80
2022/09/30 05:31:05;;;;;;;1.65;1.55;;;;;;;3.15;94.63;101008.81;5032625;28;20053;-81
2022/09/30 05:33:32;;;;;;;1.95;1.80;;;;;;;3.17;94.70;101000.53;5032670;28;20049;-81
2022/09/30 05:36:03;;;;;;;2.15;2.05;;;;;;;3.18;94.73;101009.91;5032412;28;20132;-80
2022/09/30 05:38:30;;;;;;;5.18;1.92;;;;;;;3.11;94.43;101017.84;5033307;28;20046;-80
2022/09/30 05:40:56;;;;;;;5.22;2.05;;;;;;;3.08;94.75;101013.34;5014851;28;20485;-80
2022/09/30 05:43:23;;;;;;;2.63;2.30;;;;;;;3.08;94.86;101010.69;5014996;28;20080;-80
2022/09/30 05:45:54;;;;;;;1.92;1.80;;;;;;;3.11;94.84;101015.19;5014720;28;20133;-80
2022/09/30 05:48:23;;;;;;;2.63;1.75;;;;;;;3.11;94.93;101013.31;5033368;28;20487;-81
2022/09/30 05:50:54;;;;;;;3.28;2.17;;;;;;;3.13;95.03;101018.94;5030911;28;20136;-80
2022/09/30 05:53:20;;;;;;;3.25;2.20;;;;;;;3.14;95.06;101020.44;5033261;28;20565;-77
2022/09/30 05:55:47;;;;;;;2.35;2.15;;;;;;;3.21;95.90;101027.56;5033024;28;20092;-76
2022/09/30 05:58:14;;;;;;;5.97;2.55;;;;;;;3.28;96.74;101014.38;5032983;28;20117;-76
2022/09/30 06:00:42;;;;;;;4.00;2.80;;;;;;;3.37;96.55;101027.13;5031516;28;20081;-88
2022/09/30 06:03:09;;;;;;;6.13;2.40;;;;;;;3.35;96.19;101030.13;5032849;28;20084;-87
2022/09/30 06:05:36;;;;;;;4.80;2.30;;;;;;;3.37;95.95;101032.38;5032461;28;20046;-86
2022/09/30 06:08:03;;;;;;;2.50;2.30;;;;;;;3.36;95.86;101039.53;5032189;28;20581;-88
2022/09/30 06:10:30;;;;;;;4.53;2.28;;;;;;;3.39;95.86;101035.38;5033172;28;20035;-87
2022/09/30 06:12:58;;;;;;;2.53;1.90;;;;;;;3.40;95.83;101027.09;5032537;28;20049;-87
2022/09/30 06:15:25;;;;;;;2.78;2.25;;;;;;;3.42;96.00;101030.09;5032443;28;20133;-84
2022/09/30 06:17:53;;;;;;;2.60;2.03;;;;;;;3.42;95.84;101043.28;5033525;28;20053;-83
2022/09/30 06:20:20;;;;;;;4.35;2.20;;;;;;;3.38;95.98;101037.28;5035524;28;20133;-83
2022/09/30 06:22:46;;;;;;;3.97;2.33;;;;;;;3.43;96.43;101044.78;5035270;28;20049;-83
2022/09/30 06:25:13;;;;;;;2.80;2.45;;;;;;;3.50;96.73;101036.09;5036050;28;20053;-80
2022/09/30 06:27:45;;;;;;;2.72;2.20;;;;;;;3.57;96.57;101034.19;5035987;28;20050;-80
2022/09/30 06:30:12;;;;;;;;;;;;;;;3.61;96.41;101034.88;5036403;28;20558;-80
2022/09/30 06:32:38;;;;;;;2.78;2.47;;;;;;;3.70;96.68;101031.84;5036198;28;20429;-80
2022/09/30 06:35:05;;;;;;;2.60;2.40;;;;;;;3.81;96.59;101044.97;5035215;28;20113;-81
2022/09/30 06:37:31;;;;;;;3.30;3.00;;;;;;;4.03;96.79;101041.03;5035421;28;20117;-79
2022/09/30 06:39:58;;;;;;;5.40;3.08;;;;;;;4.91;95.46;101049.34;5035546;28;20188;-79
2022/09/30 06:42:24;;;;;;;3.70;3.40;;;;;;;5.49;92.65;101050.97;5036020;28;20050;-79
2022/09/30 06:44:51;;;;;;;4.95;3.78;;;;;;;5.58;91.08;101047.84;5035512;28;20100;-81
2022/09/30 06:47:19;;;;;;;4.78;4.22;;;;;;;5.24;91.87;101050.50;5035620;28;20478;-81
2022/09/30 06:49:51;;;;;;;4.80;4.30;;;;;;;5.03;93.20;101052.25;5034609;28;20529;-81
2022/09/30 06:52:18;;;;;;;7.93;4.75;;;;;;;5.05;94.03;101059.75;5023289;28;20073;-81
2022/09/30 06:54:45;;;;;;;8.18;5.00;;;;;;;5.11;94.41;101058.19;5015820;28;20042;-82
2022/09/30 06:57:12;;;;;;;5.60;4.65;;;;;;;5.17;94.60;101055.88;5015796;28;20140;-81
2022/09/30 06:59:39;;;;;;;5.82;5.15;;;;;;;5.22;94.70;101055.41;5015678;28;20525;-80
2022/09/30 07:02:05;;;;;;;7.57;5.40;;;;;;;5.28;95.83;101059.13;5015109;28;20487;-81
2022/09/30 07:04:32;;;;;;;7.10;5.78;;;;;;;5.40;96.21;101060.50;5014823;28;20542;-77
2022/09/30 07:06:58;;;;;;;6.78;5.97;;;;;;;5.51;96.47;101053.97;4997453;28;20396;-77
2022/09/30 07:09:25;;;;;;;7.22;5.55;;;;;;;5.68;96.60;101058.25;5015335;28;20109;-76
2022/09/30 07:11:51;;;;;;;6.53;5.88;;;;;;;5.85;96.97;101045.94;5015141;28;20482;-79
2022/09/30 07:14:18;;;;;;;7.35;6.05;;;;;;;5.99;96.95;101052.97;4998249;28;20078;-81
2022/09/30 07:16:45;;;;;;;7.40;6.43;;;;;;;6.18;97.28;101054.19;4997764;28;20553;-77
2022/09/30 07:19:12;;;;;;;7.90;6.90;;;;;;;6.35;97.29;101053.16;5015254;28;20042;-80
2022/09/30 07:21:38;;;;;;;10.02;7.05;;;;;;;6.55;97.54;101059.25;5015361;28;20049;-79
2022/09/30 07:24:05;;;;;;;9.93;7.85;;;;;;;6.75;97.69;101059.31;5014941;28;20050;-80
2022/09/30 07:26:32;;;;;;;11.73;8.43;;;;;;;6.93;98.09;101056.31;5035064;28;20525;-80
2022/09/30 07:28:59;;;;;;;10.18;8.55;;;;;;;7.10;98.40;101057.91;5016521;28;20050;-80
2022/09/30 07:31:26;;;;;;;13.57;9.23;;;;;;;7.25;98.44;101053.06;5034423;28;20053;-80
2022/09/30 07:33:58;;;;;;;14.77;10.77;;;;;;;7.44;98.65;101047.00;5034751;28;20049;-80
2022/09/30 07:36:31;;;;;;;14.68;11.55;;;;;;;7.61;98.96;101045.13;5034849;28;20125;-80
2022/09/30 07:39:04;;;;;;;18.25;12.50;;;;;;;7.78;98.90;101046.66;5034564;28;20066;-80
2022/09/30 07:41:30;;;;;;;16.23;13.07;;;;;;;7.93;98.85;101045.19;5034836;28;20046;-80
2022/09/30 07:44:00;;;;;;;17.15;12.95;;;;;;;8.09;99.03;101046.34;5034399;28;20281;-80
2022/09/30 07:46:30;;;;;;;16.25;12.88;;;;;;;8.26;98.84;101043.28;5034026;28;20129;-82
2022/09/30 07:49:04;;;;;;;18.63;14.77;;;;;;;8.44;98.64;101052.72;5034260;28;20073;-82
2022/09/30 07:51:34;;;;;;;18.60;15.07;;;;;;;8.64;99.19;101054.13;5034933;28;20434;-81
2022/09/30 07:54:10;;;;;;;19.77;15.38;;;;;;;8.82;98.58;101048.34;5034434;28;20042;-81
2022/09/30 07:56:37;;;;;;;17.52;15.20;;;;;;;8.96;98.34;101052.53;5034612;28;20042;-80
2022/09/30 07:59:26;;;;;;;17.80;15.00;;;;;;;9.15;97.72;101049.00;5034750;28;20049;-80
2022/09/30 08:01:52;;;;;;;19.20;15.30;;;;;;;9.31;97.71;101045.50;5033779;28;20753;-81
2022/09/30 08:04:20;;;;;;;21.80;16.08;;;;;;;9.48;97.00;101046.19;5034394;28;20056;-80
2022/09/30 08:06:50;;;;;;;19.00;15.35;;;;;;;9.65;96.15;101042.97;5034328;28;20279;-84
2022/09/30 08:09:22;;;;;;;21.58;15.35;;;;;;;9.86;96.05;101043.53;5033966;28;20068;-80
2022/09/30 08:11:49;;;;;;;20.00;15.60;;;;;;;10.01;95.23;101036.56;5034133;28;20049;-80
2022/09/30 08:14:20;;;;;;;19.13;15.90;;;;;;;10.16;94.91;101034.97;5034271;28;20517;-85
2022/09/30 08:16:47;;;;;;;;;;;;;;;10.34;95.41;101035.19;5034124;28;20045;-86
2022/09/30 08:19:20;;;;;;;21.45;16.95;;;;;;;10.54;94.82;101031.47;5034603;28;19930;-82
2022/09/30 08:21:47;;;;;;;21.25;17.45;;;;;;;10.71;93.71;101032.06;5033732;28;20125;-81
2022/09/30 08:24:15;;;;;;;21.77;17.00;;;;;;;10.89;92.86;101038.25;5033606;28;20549;-81
2022/09/30 08:26:42;;;;;;;33.80;23.17;;;;;;;11.07;91.82;101036.91;5034182;28;20046;-86
2022/09/30 08:29:13;;;;;;;19.95;16.73;;;;;;;11.22;90.32;101048.50;5034024;28;20074;-81
2022/09/30 08:31:46;;;;;;;18.23;16.02;;;;;;;11.41;90.35;101052.78;5034327;28;20565;-82
2022/09/30 08:37:15;;;;;;;15.77;14.23;;;;;;;11.74;88.26;101050.38;5343838;23;20068;-84
2022/09/30 08:39:42;;;;;;;16.95;14.63;;;;;;;11.89;89.02;101056.69;4955363;28;20086;-82
2022/09/30 08:42:34;;;;;;;14.82;13.30;;;;;;;12.06;87.80;101043.81;4941035;28;20052;-82
2022/09/30 08:45:32;;;;;;;15.50;13.50;;;;;;;12.26;88.18;101040.75;4939389;28;20563;-81
2022/09/30 08:48:15;;;;;;;14.60;13.10;;;;;;;12.37;86.01;101048.34;4955396;28;20056;-83
2022/09/30 08:51:19;;;;;;;12.63;11.43;;;;;;;12.46;85.41;101048.31;4954704;28;20520;-83
2022/09/30 08:53:48;;;;;;;15.23;12.20;;;;;;;12.61;84.31;101044.63;4955600;28;20564;-83
2022/09/30 08:56:28;;;;;;;13.32;10.82;;;;;;;12.73;83.79;101053.69;4955606;28;20243;-82
2022/09/30 08:59:00;;;;;;;13.25;11.02;;;;;;;12.90;83.10;101043.41;4955294;28;20520;-83
2022/09/30 09:01:29;;;;;;;;;;;;;;;13.10;84.57;101049.03;4954660;28;20054;-83
2022/09/30 09:03:57;;;;;;;10.80;9.70;;;;;;;13.15;82.29;101055.72;4955018;28;19931;-83
2022/09/30 09:06:46;;;;;;;10.88;9.75;;;;;;;13.36;82.16;101057.44;4955011;28;20119;-83
2022/09/30 09:09:34;;;;;;;11.07;9.43;;;;;;;13.47;80.01;101056.97;4955153;28;20052;-82
2022/09/30 09:12:21;;;;;;;10.15;9.18;;;;;;;13.51;79.23;101074.34;4955014;28;20269;-77
2022/09/30 09:15:25;;;;;;;12.95;9.75;;;;;;;13.73;80.24;101078.72;4955000;28;20058;-78
2022/09/30 09:18:10;;;;;;;9.95;8.95;;;;;;;14.08;80.39;101065.59;4954971;28;20055;-77
2022/09/30 09:21:08;;;;;;;9.63;8.60;;;;;;;14.18;78.60;101067.75;4954583;28;20115;-82
2022/09/30 09:23:35;;;;;;;20.25;9.93;;;;;;;14.41;78.97;101065.53;4955438;28;20139;-81
2022/09/30 09:26:03;;;;;;;11.23;10.10;;;;;;;14.56;77.57;101058.28;4954711;28;20126;-81
2022/09/30 09:28:39;;;;;;;11.90;10.63;;;;;;;14.71;77.00;101055.66;4954965;28;20050;-81
2022/09/30 09:31:13;;;;;;;14.45;9.60;;;;;;;14.81;76.74;101052.41;4953547;28;20148;-80
2022/09/30 09:33:39;;;;;;;11.52;10.32;;;;;;;14.99;75.25;101057.63;4954789;28;20047;-81
2022/09/30 09:36:35;;;;;;;12.07;10.98;;;;;;;15.08;75.58;101062.16;4954043;28;20154;-80
2022/09/30 09:39:19;;;;;;;11.00;10.00;;;;;;;15.09;74.33;101052.16;4954757;28;20048;-84
2022/09/30 09:42:02;;;;;;;13.93;10.05;;;;;;;15.10;73.51;101053.66;4953622;28;20044;-81
2022/09/30 09:44:42;;;;;;;11.50;10.40;;;;;;;15.08;73.69;101050.69;4954476;28;20139;-82
2022/09/30 09:47:16;;;;;;;10.88;9.88;;;;;;;15.14;74.85;101038.84;4954088;28;20052;-83
2022/09/30 09:49:45;;;;;;;10.73;9.73;;;;;;;15.21;72.11;101045.75;4953023;28;20481;-82
2022/09/30 09:52:11;;;;;;;10.15;9.10;;;;;;;15.28;72.32;101050.75;4952735;28;20043;-82
2022/09/30 09:54:47;;;;;;;10.10;9.10;;;;;;;15.33;72.30;101056.22;4952149;28;20051;-81
2022/09/30 09:57:15;;;;;;;11.65;10.57;;;;;;;15.29;72.88;101049.56;4952499;28;20524;-81
2022/09/30 10:03:05;;;;;;;9.55;8.75;;;;;;;15.35;71.70;101053.81;4953104;28;20127;-86
2022/09/30 10:05:39;;;;;;;9.90;8.90;;;;;;;15.33;72.53;101058.16;4953793;28;20497;-83
2022/09/30 10:08:16;;;;;;;10.90;9.18;;;;;;;15.39;72.30;101056.28;4953808;28;20043;-83
2022/09/30 10:10:45;;;;;;;8.93;7.70;;;;;;;15.43;70.74;101064.91;4952213;28;20054;-89
2022/09/30 10:13:23;;;;;;;9.07;7.32;;;;;;;15.42;71.88;101054.63;4953908;28;20102;-83
2022/09/30 10:15:56;;;;;;;8.55;7.85;;;;;;;15.44;72.58;101055.66;4953312;28;20135;-83
2022/09/30 10:18:32;;;;;;;11.05;6.80;;;;;;;15.44;72.66;101052.22;4951741;28;20054;-83
2022/09/30 10:21:04;;;;;;;7.72;6.55;;;;;;;15.41;72.24;101051.22;4951934;28;20484;-83
2022/09/30 10:23:36;;;;;;;7.38;5.97;;;;;;;15.41;70.34;101053.88;4952434;28;20060;-83
2022/09/30 10:26:16;;;;;;;6.75;5.70;;;;;;;15.35;69.69;101053.81;4952173;28;20124;-84
2022/09/30 10:28:45;;;;;;;5.63;5.13;;;;;;;15.37;70.15;101045.28;4953930;28;20580;-83
2022/09/30 10:31:28;;;;;;;5.72;5.07;;;;;;;15.42;69.84;101054.63;4953220;28;20543;-82
2022/09/30 10:34:00;;;;;;;5.50;4.90;;;;;;;15.45;69.86;101051.75;4953013;28;20051;-83
2022/09/30 10:36:33;;;;;;;5.50;5.03;;;;;;;15.42;69.41;101046.59;4953695;28;20063;-80
2022/09/30 10:39:32;;;;;;;5.47;5.07;;;;;;;15.37;71.08;101057.97;4953048;28;20082;-83
2022/09/30 10:42:15;;;;;;;5.40;5.00;;;;;;;15.30;70.56;101051.03;4938523;28;20063;-81
2022/09/30 10:44:46;;;;;;;5.18;4.72;;;;;;;15.38;69.17;101051.41;4953593;28;20052;-85
2022/09/30 10:47:19;;;;;;;4.65;4.25;;;;;;;15.43;69.54;101048.81;4952966;28;20040;-86
2022/09/30 10:49:54;;;;;;;4.15;3.85;;;;;;;15.56;69.25;101051.19;4952238;28;20497;-86
2022/09/30 10:52:27;;;;;;;4.65;4.22;;;;;;;15.58;69.71;101044.19;4953811;28;20075;-83
2022/09/30 10:54:57;;;;;;;4.47;4.03;;;;;;;15.68;68.08;101042.84;4953067;28;20126;-88
2022/09/30 10:57:25;;;;;;;4.10;3.83;;;;;;;15.68;68.18;101040.16;4953577;28;20052;-84
2022/09/30 10:59:59;;;;;;;4.78;3.78;;;;;;;15.71;66.79;101045.81;4952799;28;20123;-82
2022/09/30 11:02:44;;;;;;;4.40;4.00;;;;;;;15.66;68.38;101039.88;4953102;28;20560;-82
2022/09/30 11:05:23;;;;;;;5.00;2.85;;;;;;;15.64;67.28;101034.25;4955123;28;20048;-79
2022/09/30 11:08:02;;;;;;;427.77;320.27;;;;;;;15.62;68.64;101042.03;4954552;28;20052;-82
2022/09/30 11:10:44;;;;;;;16.33;12.82;;;;;;;15.65;67.81;101043.78;4939020;28;20079;-81
2022/09/30 11:13:29;;;;;;;;;;;;;;;15.73;69.04;101038.75;4956784;28;20058;-82
2022/09/30 11:16:08;;;;;;;4.63;4.28;;;;;;;15.77;68.25;101033.19;4955294;28;19933;-82
2022/09/30 11:18:49;;;;;;;3.70;3.50;;;;;;;15.85;68.71;101034.28;4956225;28;20055;-81
2022/09/30 11:21:30;;;;;;;3.30;3.10;;;;;;;15.91;68.03;101030.47;4955460;28;20048;-81
2022/09/30 11:24:10;;;;;;;3.27;2.97;;;;;;;15.94;66.19;101026.84;4955399;28;20047;-81
2022/09/30 11:26:57;;;;;;;4.13;3.10;;;;;;;15.88;67.25;101025.31;4955102;28;20387;-82
2022/09/30 11:29:50;;;;;;;2.65;2.55;;;;;;;15.77;68.15;101020.53;4955842;28;20054;-82
2022/09/30 11:32:23;;;;;;;2.47;2.38;;;;;;;15.75;68.00;101017.56;4954586;28;20071;-82
2022/09/30 11:35:19;;;;;;;2.35;2.20;;;;;;;15.78;67.14;101019.31;4955257;28;20514;-81
2022/09/30 11:38:09;;;;;;;2.42;2.25;;;;;;;15.72;66.85;101021.19;4955069;28;20131;-81
2022/09/30 11:40:43;;;;;;;1.80;1.70;;;;;;;15.79;65.31;101015.41;4954355;28;20048;-82
2022/09/30 11:43:42;;;;;;;4.07;2.17;;;;;;;15.77;63.84;101017.84;4954441;28;20500;-84
2022/09/30 11:46:48;;;;;;;1.88;1.77;;;;;;;15.56;65.65;101013.63;4936287;28;20079;-81
2022/09/30 11:49:18;;;;;;;2.65;1.80;;;;;;;15.57;66.38;101015.13;4954598;28;20126;-84
2022/09/30 11:52:15;;;;;;;2.30;2.10;;;;;;;15.74;66.21;101001.94;4955256;28;20048;-81
2022/09/30 11:54:41;;;;;;;3.55;2.10;;;;;;;15.69;64.55;101008.69;4954605;28;20127;-81
2022/09/30 11:57:16;;;;;;;1.98;1.88;;;;;;;15.75;63.76;101001.47;4953593;28;20051;-81
2022/09/30 11:59:50;;;;;;;2.30;2.17;;;;;;;15.83;65.64;100999.84;4955221;28;20050;-82
2022/09/30 12:05:32;;;;;;;2.30;2.20;;;;;;;16.21;64.37;100998.84;4955472;28;20052;-81
2022/09/30 12:08:18;;;;;;;2.80;2.53;;;;;;;16.19;64.56;100993.19;4954656;28;20066;-81
2022/09/30 12:10:55;;;;;;;4.72;2.70;;;;;;;15.99;65.90;100991.25;4955548;28;20668;-83